createdAt,value
2019-03-29T00:00:10.584Z,6.20
2019-03-29T00:02:39.429Z,7.30
2019-03-29T00:05:08.196Z,7.10
2019-03-29T00:07:39.821Z,6.70
2019-03-29T00:10:07.716Z,6.83
2019-03-29T00:12:36.459Z,7.83
2019-03-29T00:15:07.926Z,7.07
2019-03-29T00:17:36.497Z,8.03
2019-03-29T00:20:07.068Z,7.23
2019-03-29T00:22:35.638Z,7.73
2019-03-29T00:25:04.633Z,6.50
2019-03-29T00:27:33.421Z,7.00
2019-03-29T00:30:02.445Z,7.03
2019-03-29T00:32:31.259Z,6.17
2019-03-29T00:35:00.833Z,6.73
2019-03-29T00:37:29.602Z,7.70
2019-03-29T00:39:58.368Z,7.60
2019-03-29T00:42:27.178Z,6.53
2019-03-29T00:44:56.204Z,6.70
2019-03-29T00:47:25.241Z,6.93
2019-03-29T00:49:53.943Z,6.80
2019-03-29T00:52:22.662Z,6.47
2019-03-29T00:54:51.308Z,7.07
2019-03-29T00:57:20.532Z,7.47
2019-03-29T00:59:49.327Z,6.73
2019-03-29T01:02:18.945Z,6.30
2019-03-29T01:04:48.019Z,6.37
2019-03-29T01:07:16.678Z,6.80
2019-03-29T01:09:45.476Z,7.33
2019-03-29T01:12:14.300Z,7.37
2019-03-29T01:14:43.006Z,7.23
2019-03-29T01:17:12.163Z,7.13
2019-03-29T01:19:40.720Z,6.83
2019-03-29T01:22:09.467Z,6.23
2019-03-29T01:24:38.492Z,6.87
2019-03-29T01:27:07.018Z,6.73
2019-03-29T01:29:36.140Z,7.13
2019-03-29T01:32:04.664Z,6.80
2019-03-29T01:34:33.917Z,7.47
2019-03-29T01:37:03.224Z,6.73
2019-03-29T01:39:31.988Z,6.50
2019-03-29T01:42:00.956Z,7.20
2019-03-29T01:44:29.998Z,6.70
2019-03-29T01:46:58.758Z,5.83
2019-03-29T01:49:28.562Z,6.90
2019-03-29T01:51:57.159Z,6.83
2019-03-29T01:54:26.416Z,7.20
2019-03-29T01:56:55.200Z,6.30
2019-03-29T01:59:23.938Z,7.50
2019-03-29T02:01:54.938Z,6.30
2019-03-29T02:04:24.371Z,7.97
2019-03-29T02:06:53.174Z,7.27
2019-03-29T02:09:24.332Z,7.43
2019-03-29T02:11:53.411Z,7.00
2019-03-29T02:14:22.088Z,6.77
2019-03-29T02:16:50.866Z,7.47
2019-03-29T02:19:19.406Z,7.30
2019-03-29T02:21:48.267Z,6.97
2019-03-29T02:24:17.043Z,6.77
2019-03-29T02:26:45.721Z,7.27
2019-03-29T02:29:14.496Z,7.40
2019-03-29T02:31:43.284Z,7.63
2019-03-29T02:34:11.965Z,6.90
2019-03-29T02:36:40.581Z,6.43
2019-03-29T02:39:09.356Z,6.63
2019-03-29T02:41:38.102Z,6.30
2019-03-29T02:44:07.635Z,6.60
2019-03-29T02:46:36.891Z,6.70
2019-03-29T02:49:05.645Z,6.77
2019-03-29T02:51:34.504Z,6.47
2019-03-29T02:54:04.020Z,6.63
2019-03-29T02:56:32.843Z,8.67
2019-03-29T02:59:01.457Z,8.03
2019-03-29T03:01:30.379Z,6.70
2019-03-29T03:03:59.254Z,6.40
2019-03-29T03:06:28.189Z,6.57
2019-03-29T03:09:12.304Z,6.07
2019-03-29T03:11:27.303Z,6.10
2019-03-29T03:13:55.988Z,6.30
2019-03-29T03:16:24.721Z,6.57
2019-03-29T03:18:53.187Z,5.67
2019-03-29T03:21:23.379Z,6.97
2019-03-29T03:23:52.084Z,7.03
2019-03-29T03:26:20.757Z,6.90
2019-03-29T03:28:49.789Z,6.23
2019-03-29T03:31:18.403Z,7.27
2019-03-29T03:33:47.073Z,7.13
2019-03-29T03:36:15.774Z,7.97
2019-03-29T03:38:44.511Z,7.17
2019-03-29T03:41:13.389Z,6.43
2019-03-29T03:43:41.965Z,7.37
2019-03-29T03:46:10.736Z,6.93
2019-03-29T03:48:39.256Z,8.30
2019-03-29T03:51:08.232Z,6.87
2019-03-29T03:53:36.999Z,6.17
2019-03-29T03:56:06.742Z,7.10
2019-03-29T03:58:36.063Z,7.47
2019-03-29T04:01:04.921Z,7.73
2019-03-29T04:03:33.660Z,6.60
2019-03-29T04:06:02.474Z,7.77
2019-03-29T04:08:31.464Z,7.10
2019-03-29T04:11:00.093Z,6.37
2019-03-29T04:13:28.825Z,6.27
2019-03-29T04:15:57.625Z,6.50
2019-03-29T04:18:26.317Z,6.90
2019-03-29T04:20:55.242Z,9.40
2019-03-29T04:23:24.073Z,7.17
2019-03-29T04:25:52.887Z,6.17
2019-03-29T04:28:21.593Z,6.30
2019-03-29T04:30:50.843Z,7.33
2019-03-29T04:33:19.381Z,7.43
2019-03-29T04:35:48.403Z,6.50
2019-03-29T04:38:17.157Z,6.97
2019-03-29T04:40:45.953Z,6.90
2019-03-29T04:43:14.922Z,7.63
2019-03-29T04:45:43.614Z,7.60
2019-03-29T04:48:12.658Z,7.47
2019-03-29T04:50:41.500Z,6.77
2019-03-29T04:53:10.246Z,7.93
2019-03-29T04:55:38.724Z,7.43
2019-03-29T04:58:07.352Z,6.90
2019-03-29T05:00:36.264Z,6.63
2019-03-29T05:03:04.922Z,8.03
2019-03-29T05:05:33.826Z,6.20
2019-03-29T05:08:02.742Z,8.27
2019-03-29T05:10:31.502Z,6.73
2019-03-29T05:13:00.671Z,6.43
2019-03-29T05:15:29.196Z,6.33
2019-03-29T05:17:57.812Z,8.23
2019-03-29T05:20:26.784Z,8.00
2019-03-29T05:22:55.673Z,8.27
2019-03-29T05:25:24.532Z,7.17
2019-03-29T05:27:53.126Z,6.40
2019-03-29T05:30:21.868Z,6.87
2019-03-29T05:32:50.570Z,7.43
2019-03-29T05:35:19.782Z,6.57
2019-03-29T05:37:48.226Z,6.60
2019-03-29T05:40:17.071Z,7.70
2019-03-29T05:42:45.740Z,7.77
2019-03-29T05:45:14.541Z,6.10
2019-03-29T05:47:43.281Z,8.77
2019-03-29T05:50:12.445Z,7.90
2019-03-29T05:52:41.157Z,7.70
2019-03-29T05:55:10.329Z,8.03
2019-03-29T05:57:38.993Z,8.40
2019-03-29T06:00:10.600Z,8.37
2019-03-29T06:02:39.368Z,8.03
2019-03-29T06:05:08.374Z,7.97
2019-03-29T06:07:37.199Z,7.37
2019-03-29T06:10:07.133Z,7.80
2019-03-29T06:12:35.874Z,8.07
2019-03-29T06:15:05.867Z,9.60
2019-03-29T06:17:47.657Z,8.30
2019-03-29T06:20:07.154Z,8.57
2019-03-29T06:22:35.690Z,8.57
2019-03-29T06:25:06.255Z,8.40
2019-03-29T06:27:35.356Z,8.43
2019-03-29T06:30:06.448Z,8.37
2019-03-29T06:32:35.303Z,8.37
2019-03-29T06:35:06.324Z,7.23
2019-03-29T06:37:37.277Z,9.03
2019-03-29T06:40:09.316Z,8.87
2019-03-29T06:42:37.962Z,7.87
2019-03-29T06:45:07.566Z,8.97
2019-03-29T06:47:36.538Z,7.93
2019-03-29T06:50:07.573Z,7.23
2019-03-29T06:52:37.494Z,6.70
2019-03-29T06:55:06.930Z,7.03
2019-03-29T06:57:35.719Z,7.20
2019-03-29T07:00:05.603Z,6.80
2019-03-29T07:02:35.241Z,6.23
2019-03-29T07:05:04.342Z,6.50
2019-03-29T07:07:33.198Z,7.03
2019-03-29T07:10:01.993Z,6.00
2019-03-29T07:12:30.726Z,6.23
2019-03-29T07:14:59.485Z,6.60
2019-03-29T07:17:28.107Z,6.40
2019-03-29T07:19:56.836Z,6.57
2019-03-29T07:22:25.395Z,6.03
2019-03-29T07:24:54.217Z,7.00
2019-03-29T07:27:22.797Z,5.77
2019-03-29T07:29:51.569Z,5.03
2019-03-29T07:32:20.411Z,5.33
2019-03-29T07:34:49.774Z,4.43
2019-03-29T07:37:19.255Z,4.00
2019-03-29T07:39:48.428Z,3.97
2019-03-29T07:42:17.317Z,2.77
2019-03-29T07:44:46.003Z,2.57
2019-03-29T07:47:14.768Z,2.70
2019-03-29T07:49:43.693Z,3.50
2019-03-29T07:52:12.627Z,2.60
2019-03-29T07:54:41.393Z,2.80
2019-03-29T07:57:10.237Z,2.27
2019-03-29T07:59:39.148Z,3.00
2019-03-29T08:02:07.916Z,2.50
2019-03-29T08:04:36.569Z,2.70
2019-03-29T08:07:06.062Z,2.83
2019-03-29T08:09:35.390Z,3.03
2019-03-29T08:12:04.353Z,2.50
2019-03-29T08:14:33.045Z,2.73
2019-03-29T08:17:02.060Z,3.63
2019-03-29T08:19:30.849Z,2.90
2019-03-29T08:21:59.593Z,2.80
2019-03-29T08:24:28.470Z,2.90
2019-03-29T08:26:57.183Z,2.57
2019-03-29T08:29:25.955Z,2.23
2019-03-29T08:31:55.682Z,2.90
2019-03-29T08:34:24.585Z,2.53
2019-03-29T08:36:53.377Z,2.60
2019-03-29T08:39:28.190Z,2.77
2019-03-29T08:41:59.990Z,2.50
2019-03-29T08:44:23.032Z,2.97
2019-03-29T08:46:51.893Z,2.60
2019-03-29T08:49:20.831Z,2.80
2019-03-29T08:51:50.108Z,2.93
2019-03-29T08:54:18.686Z,2.43
2019-03-29T08:56:47.528Z,2.80
2019-03-29T08:59:17.573Z,2.73
2019-03-29T09:01:46.986Z,2.33
2019-03-29T09:04:15.857Z,2.60
2019-03-29T09:06:53.276Z,2.70
2019-03-29T09:09:15.345Z,3.03
2019-03-29T09:11:44.493Z,2.60
2019-03-29T09:14:13.638Z,3.50
2019-03-29T09:16:42.166Z,2.87
2019-03-29T09:19:10.979Z,2.93
2019-03-29T09:21:40.172Z,3.87
2019-03-29T09:24:21.172Z,2.97
2019-03-29T09:26:39.886Z,2.90
2019-03-29T09:29:08.592Z,3.20
2019-03-29T09:31:38.620Z,3.73
2019-03-29T09:34:07.532Z,3.03
2019-03-29T09:36:36.224Z,3.23
2019-03-29T09:39:06.764Z,3.87
2019-03-29T09:41:35.730Z,3.57
2019-03-29T09:44:04.753Z,4.40
2019-03-29T09:46:33.371Z,3.70
2019-03-29T09:49:02.139Z,3.87
2019-03-29T09:51:31.151Z,4.20
2019-03-29T09:53:59.772Z,4.77
2019-03-29T09:56:38.473Z,3.80
2019-03-29T09:58:59.617Z,4.13
2019-03-29T10:01:28.568Z,4.67
2019-03-29T10:03:57.997Z,4.23
2019-03-29T10:06:26.763Z,4.97
2019-03-29T10:08:55.961Z,4.63
2019-03-29T10:11:24.954Z,4.53
2019-03-29T10:13:54.193Z,4.53
2019-03-29T10:16:25.816Z,4.20
2019-03-29T10:18:53.468Z,4.13
2019-03-29T10:21:22.240Z,4.80
2019-03-29T10:23:51.579Z,5.40
2019-03-29T10:26:20.656Z,6.10
2019-03-29T10:28:51.512Z,5.20
2019-03-29T10:31:31.934Z,5.07
2019-03-29T10:33:50.852Z,5.77
2019-03-29T10:36:19.445Z,5.13
2019-03-29T10:38:48.220Z,4.73
2019-03-29T10:41:18.120Z,5.10
2019-03-29T10:43:46.912Z,5.47
2019-03-29T10:46:15.354Z,5.53
2019-03-29T10:48:46.807Z,4.67
2019-03-29T10:51:15.642Z,5.60
2019-03-29T10:53:44.880Z,4.27
2019-03-29T10:56:13.827Z,4.80
2019-03-29T10:58:45.054Z,5.70
2019-03-29T11:01:14.271Z,6.33
2019-03-29T11:03:42.827Z,4.60
2019-03-29T11:06:11.548Z,5.27
2019-03-29T11:08:43.458Z,5.00
2019-03-29T11:11:10.847Z,5.03
2019-03-29T11:13:41.213Z,5.90
2019-03-29T11:16:09.962Z,5.47
2019-03-29T11:18:38.498Z,5.57
2019-03-29T11:21:07.188Z,5.70
2019-03-29T11:23:36.052Z,4.90
2019-03-29T11:26:04.856Z,4.50
2019-03-29T11:28:33.453Z,6.03
2019-03-29T11:31:02.174Z,6.00
2019-03-29T11:33:30.826Z,5.80
2019-03-29T11:35:59.663Z,5.60
2019-03-29T11:38:28.464Z,5.53
2019-03-29T11:40:57.554Z,5.53
2019-03-29T11:43:27.412Z,5.03
2019-03-29T11:45:56.480Z,6.37
2019-03-29T11:48:25.534Z,5.80
2019-03-29T11:50:54.278Z,5.63
2019-03-29T11:53:23.015Z,6.27
2019-03-29T11:55:51.855Z,5.77
2019-03-29T11:58:20.667Z,6.27
2019-03-29T12:00:49.886Z,6.10
2019-03-29T12:03:18.783Z,5.50
2019-03-29T12:05:47.947Z,6.43
2019-03-29T12:08:16.832Z,5.07
2019-03-29T12:10:45.420Z,5.63
2019-03-29T12:13:14.215Z,5.83
2019-03-29T12:15:42.953Z,5.20
2019-03-29T12:18:11.775Z,6.20
2019-03-29T12:20:40.488Z,6.37
2019-03-29T12:23:09.637Z,6.30
2019-03-29T12:25:38.279Z,6.10
2019-03-29T12:28:07.401Z,6.00
2019-03-29T12:30:36.395Z,5.57
2019-03-29T12:33:05.059Z,5.43
2019-03-29T12:35:34.358Z,5.77
2019-03-29T12:38:03.434Z,5.23
2019-03-29T12:40:32.377Z,5.73
2019-03-29T12:43:00.971Z,5.80
2019-03-29T12:45:29.917Z,5.43
2019-03-29T12:47:58.840Z,5.67
2019-03-29T12:50:29.234Z,6.43
2019-03-29T12:52:58.127Z,7.07
2019-03-29T12:55:26.840Z,5.63
2019-03-29T12:57:55.419Z,5.47
2019-03-29T13:00:24.472Z,5.83
2019-03-29T13:02:53.088Z,6.70
2019-03-29T13:05:21.583Z,6.47
2019-03-29T13:07:52.963Z,6.03
2019-03-29T13:10:20.955Z,6.03
2019-03-29T13:12:50.026Z,6.77
2019-03-29T13:15:18.596Z,6.47
2019-03-29T13:17:47.361Z,6.90
2019-03-29T13:20:16.217Z,6.00
2019-03-29T13:22:44.969Z,6.13
2019-03-29T13:25:13.863Z,6.27
2019-03-29T13:27:42.533Z,5.90
2019-03-29T13:30:16.900Z,5.77
2019-03-29T13:32:45.979Z,5.90
2019-03-29T13:35:14.501Z,5.83
2019-03-29T13:37:43.475Z,6.30
2019-03-29T13:40:12.957Z,6.53
2019-03-29T13:42:41.595Z,7.30
2019-03-29T13:45:10.801Z,6.20
2019-03-29T13:47:39.546Z,7.80
2019-03-29T13:50:10.138Z,6.30
2019-03-29T13:52:38.726Z,6.80
2019-03-29T13:55:07.880Z,6.87
2019-03-29T13:57:37.077Z,6.10
2019-03-29T14:00:08.948Z,6.33
2019-03-29T14:02:38.019Z,5.57
2019-03-29T14:05:07.134Z,5.40
2019-03-29T14:07:35.818Z,5.90
2019-03-29T14:10:07.658Z,5.63
2019-03-29T14:12:36.873Z,6.00
2019-03-29T14:15:08.005Z,6.87
2019-03-29T14:17:36.905Z,6.83
2019-03-29T14:20:07.000Z,5.77
2019-03-29T14:22:35.891Z,6.70
2019-03-29T14:25:07.168Z,6.53
2019-03-29T14:27:36.044Z,6.20
2019-03-29T14:30:06.814Z,5.60
2019-03-29T14:32:35.393Z,5.30
2019-03-29T14:35:06.389Z,5.93
2019-03-29T14:37:35.307Z,5.27
2019-03-29T14:40:05.992Z,6.00
2019-03-29T14:42:34.622Z,5.47
2019-03-29T14:45:04.831Z,6.53
2019-03-29T14:47:41.208Z,5.50
2019-03-29T14:50:09.149Z,4.37
2019-03-29T14:52:37.930Z,5.33
2019-03-29T14:55:07.063Z,5.60
2019-03-29T14:57:35.829Z,5.13
2019-03-29T15:00:06.956Z,4.70
2019-03-29T15:02:35.664Z,5.53
2019-03-29T15:05:06.887Z,5.50
2019-03-29T15:07:36.527Z,5.57
2019-03-29T15:10:11.176Z,4.17
2019-03-29T15:12:39.983Z,4.57
2019-03-29T15:15:08.632Z,4.20
2019-03-29T15:17:37.512Z,4.27
2019-03-29T15:20:07.044Z,3.57
2019-03-29T15:22:35.746Z,4.03
2019-03-29T15:25:05.332Z,4.13
2019-03-29T15:27:34.240Z,4.53
2019-03-29T15:30:03.058Z,3.97
2019-03-29T15:32:32.026Z,3.47
2019-03-29T15:35:00.879Z,4.30
2019-03-29T15:37:29.707Z,4.10
2019-03-29T15:39:58.691Z,3.43
2019-03-29T15:42:27.443Z,3.90
2019-03-29T15:44:56.042Z,4.10
2019-03-29T15:47:24.678Z,3.80
2019-03-29T15:49:56.178Z,3.60
2019-03-29T15:52:24.071Z,4.20
2019-03-29T15:54:54.184Z,3.50
2019-03-29T15:57:22.627Z,3.93
2019-03-29T15:59:51.425Z,3.27
2019-03-29T16:02:20.329Z,3.93
2019-03-29T16:04:49.041Z,3.30
2019-03-29T16:07:17.780Z,3.30
2019-03-29T16:09:46.588Z,3.30
2019-03-29T16:12:15.174Z,3.27
2019-03-29T16:14:44.033Z,3.63
2019-03-29T16:17:12.553Z,3.77
2019-03-29T16:19:41.236Z,3.57
2019-03-29T16:22:09.699Z,4.10
2019-03-29T16:24:38.477Z,4.03
2019-03-29T16:27:07.425Z,3.70
2019-03-29T16:29:36.099Z,4.23
2019-03-29T16:32:04.735Z,4.10
2019-03-29T16:34:33.615Z,3.70
2019-03-29T16:37:02.221Z,4.10
2019-03-29T16:39:30.913Z,3.70
2019-03-29T16:41:59.440Z,4.20
2019-03-29T16:44:28.069Z,4.40
2019-03-29T16:46:57.059Z,4.10
2019-03-29T16:49:25.646Z,3.80
2019-03-29T16:51:54.304Z,4.30
2019-03-29T16:54:23.039Z,4.47
2019-03-29T16:56:51.655Z,4.07
2019-03-29T16:59:20.307Z,4.20
2019-03-29T17:01:51.232Z,3.90
2019-03-29T17:04:19.252Z,4.70
2019-03-29T17:06:47.989Z,4.17
2019-03-29T17:09:16.607Z,5.13
2019-03-29T17:11:45.705Z,4.43
2019-03-29T17:14:14.371Z,5.20
2019-03-29T17:16:43.244Z,4.57
2019-03-29T17:19:11.845Z,5.20
2019-03-29T17:21:40.611Z,5.60
2019-03-29T17:24:09.217Z,5.17
2019-03-29T17:26:37.882Z,5.10
2019-03-29T17:29:06.401Z,5.03
2019-03-29T17:31:35.296Z,5.20
2019-03-29T17:34:04.176Z,5.03
2019-03-29T17:36:32.784Z,5.13
2019-03-29T17:39:01.369Z,5.60
2019-03-29T17:41:30.160Z,5.93
2019-03-29T17:43:58.833Z,5.47
2019-03-29T17:46:27.634Z,5.77
2019-03-29T17:48:56.321Z,5.87
2019-03-29T17:51:25.037Z,5.93
2019-03-29T17:53:53.976Z,6.13
2019-03-29T17:56:22.563Z,6.60
2019-03-29T17:58:51.521Z,6.10
2019-03-29T18:01:20.341Z,8.50
2019-03-29T18:03:48.912Z,7.83
2019-03-29T18:06:17.816Z,7.47
2019-03-29T18:08:46.472Z,8.13
2019-03-29T18:11:15.265Z,6.73
2019-03-29T18:13:43.849Z,7.60
2019-03-29T18:16:12.788Z,6.30
2019-03-29T18:18:41.735Z,6.03
2019-03-29T18:21:10.402Z,5.90
2019-03-29T18:23:39.040Z,6.10
2019-03-29T18:26:08.446Z,6.93
2019-03-29T18:28:38.131Z,5.70
2019-03-29T18:31:07.255Z,5.17
2019-03-29T18:33:36.044Z,5.73
2019-03-29T18:36:05.803Z,6.03
2019-03-29T18:38:37.134Z,7.37
2019-03-29T18:41:06.057Z,6.67
2019-03-29T18:43:35.286Z,5.87
2019-03-29T18:46:04.090Z,5.87
2019-03-29T18:48:32.905Z,6.90
2019-03-29T18:51:01.508Z,6.13
2019-03-29T18:53:30.368Z,5.13
2019-03-29T18:55:59.409Z,5.67
2019-03-29T18:58:28.185Z,6.80
2019-03-29T19:00:57.232Z,7.17
2019-03-29T19:03:26.229Z,6.43
2019-03-29T19:05:55.638Z,6.53
2019-03-29T19:08:24.770Z,5.57
2019-03-29T19:10:53.913Z,5.43
2019-03-29T19:13:22.843Z,6.20
2019-03-29T19:15:52.221Z,6.87
2019-03-29T19:18:21.678Z,6.43
2019-03-29T19:20:50.262Z,6.73
2019-03-29T19:23:19.058Z,6.80
2019-03-29T19:25:47.985Z,6.33
2019-03-29T19:28:16.762Z,6.37
2019-03-29T19:30:45.282Z,6.07
2019-03-29T19:33:14.278Z,6.50
2019-03-29T19:35:43.082Z,7.97
2019-03-29T19:38:11.966Z,7.20
2019-03-29T19:40:40.480Z,7.60
2019-03-29T19:43:09.392Z,6.13
2019-03-29T19:45:38.081Z,6.63
2019-03-29T19:48:06.923Z,7.40
2019-03-29T19:50:35.849Z,6.73
2019-03-29T19:53:04.628Z,6.87
2019-03-29T19:55:33.448Z,8.27
2019-03-29T19:58:02.389Z,7.60
2019-03-29T20:00:39.002Z,8.53
2019-03-29T20:03:08.015Z,7.40
2019-03-29T20:05:36.880Z,7.70
2019-03-29T20:08:05.724Z,7.20
2019-03-29T20:10:34.518Z,6.87
2019-03-29T20:13:03.342Z,7.90
2019-03-29T20:15:32.130Z,7.97
2019-03-29T20:18:01.063Z,7.47
2019-03-29T20:20:29.765Z,7.90
2019-03-29T20:22:58.532Z,7.73
2019-03-29T20:25:27.278Z,8.17
2019-03-29T20:27:58.402Z,7.57
2019-03-29T20:30:27.263Z,7.83
2019-03-29T20:32:56.255Z,8.33
2019-03-29T20:35:26.896Z,6.37
2019-03-29T20:37:56.916Z,8.87
2019-03-29T20:40:25.516Z,7.57
2019-03-29T20:42:58.407Z,8.07
2019-03-29T20:45:27.258Z,7.03
2019-03-29T20:47:56.019Z,7.33
2019-03-29T20:50:25.163Z,6.77
2019-03-29T20:52:53.874Z,6.63
2019-03-29T20:55:22.786Z,6.57
2019-03-29T20:57:51.628Z,7.00
2019-03-29T21:00:20.927Z,6.93
2019-03-29T21:02:49.679Z,7.87
2019-03-29T21:05:18.599Z,7.37
2019-03-29T21:07:47.289Z,8.37
2019-03-29T21:10:16.345Z,8.33
2019-03-29T21:12:45.147Z,7.10
2019-03-29T21:15:14.317Z,7.10
2019-03-29T21:17:55.810Z,7.13
2019-03-29T21:20:14.553Z,7.77
2019-03-29T21:22:43.086Z,7.20
2019-03-29T21:25:12.109Z,9.10
2019-03-29T21:27:40.653Z,8.23
2019-03-29T21:30:11.352Z,7.67
2019-03-29T21:32:39.956Z,7.30
2019-03-29T21:35:08.751Z,9.03
2019-03-29T21:37:37.404Z,7.57
2019-03-29T21:40:07.433Z,7.20
2019-03-29T21:42:36.458Z,7.00
2019-03-29T21:45:06.967Z,6.77
2019-03-29T21:47:36.237Z,7.57
2019-03-29T21:50:09.743Z,8.83
2019-03-29T21:52:38.551Z,9.77
2019-03-29T21:55:07.833Z,8.47
2019-03-29T21:57:36.566Z,12.63
2019-03-29T22:00:12.715Z,7.57
2019-03-29T22:02:41.471Z,7.43
2019-03-29T22:05:10.810Z,7.10
2019-03-29T22:07:39.388Z,7.30
2019-03-29T22:10:08.971Z,9.03
2019-03-29T22:12:38.181Z,8.07
2019-03-29T22:15:08.555Z,8.87
2019-03-29T22:17:37.499Z,8.07
2019-03-29T22:20:08.282Z,8.13
2019-03-29T22:22:37.128Z,7.47
2019-03-29T22:25:10.767Z,7.80
2019-03-29T22:27:39.570Z,8.13
2019-03-29T22:30:12.073Z,9.27
2019-03-29T22:32:41.253Z,9.13
2019-03-29T22:35:10.368Z,10.07
2019-03-29T22:37:39.382Z,9.80
2019-03-29T22:40:09.269Z,9.67
2019-03-29T22:42:38.190Z,9.47
2019-03-29T22:45:09.793Z,7.40
2019-03-29T22:47:38.304Z,8.10
2019-03-29T22:50:08.243Z,7.40
2019-03-29T22:52:36.920Z,7.40
2019-03-29T22:55:07.219Z,8.10
2019-03-29T22:57:35.795Z,8.30
2019-03-29T23:00:19.473Z,9.57
2019-03-29T23:02:48.742Z,9.57
2019-03-29T23:05:17.495Z,10.13
2019-03-29T23:07:46.172Z,8.27
2019-03-29T23:10:15.185Z,7.97
2019-03-29T23:12:43.730Z,10.13
2019-03-29T23:15:12.457Z,9.03
2019-03-29T23:17:41.154Z,7.60
2019-03-29T23:20:09.954Z,9.33
2019-03-29T23:22:38.495Z,10.10
2019-03-29T23:25:07.191Z,9.63
2019-03-29T23:27:36.202Z,8.47
2019-03-29T23:30:06.952Z,8.73
2019-03-29T23:32:35.626Z,9.13
2019-03-29T23:35:06.301Z,8.50
2019-03-29T23:37:35.343Z,7.37
2019-03-29T23:40:05.763Z,8.20
2019-03-29T23:42:34.224Z,8.63
2019-03-29T23:45:03.136Z,9.57
2019-03-29T23:47:32.027Z,8.13
2019-03-29T23:50:00.607Z,8.00
2019-03-29T23:52:29.166Z,7.13
2019-03-29T23:54:57.970Z,7.50
2019-03-29T23:57:26.786Z,7.03
2019-03-29T23:59:55.381Z,9.10
